Time;durP1;ratioP1;P1;durP2;ratioP2;P2;SDS_P1;SDS_P2;PMS_P1;PMS_P2;Temp;Humidity;BMP_temperature;BMP_pressure;BME280_temperature;BME280_humidity;BME280_pressure;Samples;Min_cycle;Max_cycle;Signal;HPM_P1;HPM_P2
2021/04/03 00:00:27;;;;;;;9.52;6.90;;;;;;;11.39;44.10;99441.12;4470763;32;33949;-82
2021/04/03 00:02:55;;;;;;;9.52;6.85;;;;;;;11.25;44.52;99430.44;4465168;32;34508;-83
2021/04/03 00:05:24;;;;;;;11.10;6.90;;;;;;;11.27;44.62;99431.22;4478889;32;35172;-83
2021/04/03 00:07:52;;;;;;;11.10;7.93;;;;;;;11.40;42.32;99423.50;4460586;32;33620;-83
2021/04/03 00:10:50;;;;;;;10.18;6.80;;;;;;;11.25;42.82;99414.56;4454664;32;34106;-83
2021/04/03 00:13:19;;;;;;;10.95;7.18;;;;;;;11.33;40.42;99417.69;4450059;32;34091;-83
2021/04/03 00:15:47;;;;;;;9.50;7.03;;;;;;;11.45;40.54;99426.78;4461040;32;34552;-82
2021/04/03 00:18:15;;;;;;;11.88;6.90;;;;;;;11.16;41.41;99412.44;4462475;32;33700;-82
2021/04/03 00:20:45;;;;;;;10.40;7.20;;;;;;;11.34;40.78;99415.88;4460986;32;31909;-82
2021/04/03 00:23:18;;;;;;;11.10;7.97;;;;;;;11.23;40.58;99412.03;4462550;32;32860;-82
2021/04/03 00:25:45;;;;;;;9.25;7.12;;;;;;;11.71;39.32;99433.28;4474620;32;33401;-81
2021/04/03 00:28:13;;;;;;;9.52;7.03;;;;;;;11.52;40.35;99444.84;4474916;32;33700;-81
2021/04/03 00:30:41;;;;;;;10.60;7.55;;;;;;;11.51;40.73;99448.44;4476506;32;34584;-82
2021/04/03 00:33:08;;;;;;;8.68;6.87;;;;;;;11.46;40.18;99444.31;4462978;32;32151;-82
2021/04/03 00:35:38;;;;;;;10.82;7.72;;;;;;;11.38;40.42;99436.78;4460667;32;33580;-82
2021/04/03 00:38:06;;;;;;;10.27;7.65;;;;;;;11.59;40.64;99440.09;4463037;32;33310;-82
2021/04/03 00:40:36;;;;;;;10.77;7.45;;;;;;;11.49;40.91;99439.75;4445613;32;34012;-82
2021/04/03 00:43:08;;;;;;;11.55;7.47;;;;;;;11.65;40.73;99454.78;4458391;32;33258;-82
2021/04/03 00:45:36;;;;;;;;;;;;;;;11.63;40.11;99467.22;4461213;32;33350;-82
2021/04/03 00:48:04;;;;;;;10.30;7.50;;;;;;;11.83;39.35;99452.97;4471396;32;34706;-82
2021/04/03 00:50:37;;;;;;;11.45;8.32;;;;;;;11.52;40.80;99452.78;4446046;32;33158;-82
2021/04/03 00:53:07;;;;;;;10.32;7.10;;;;;;;11.39;41.14;99451.72;4446266;32;33100;-81
2021/04/03 00:55:36;;;;;;;10.13;7.37;;;;;;;11.23;41.42;99464.03;4448816;32;34850;-82
2021/04/03 00:58:03;;;;;;;10.55;7.85;;;;;;;11.21;41.62;99465.91;4468424;32;34393;-82
2021/04/03 01:00:32;;;;;;;12.63;8.55;;;;;;;11.12;42.38;99463.75;4460164;32;33659;-82
2021/04/03 01:03:00;;;;;;;14.52;8.77;;;;;;;11.39;41.82;99464.94;4433595;32;34371;-82
2021/04/03 01:05:28;;;;;;;14.02;7.85;;;;;;;11.39;41.91;99458.78;4462951;32;33732;-82
2021/04/03 01:07:56;;;;;;;10.75;8.20;;;;;;;11.40;42.15;99453.44;4474310;32;34167;-82
2021/04/03 01:10:30;;;;;;;8.95;7.45;;;;;;;11.26;43.11;99438.31;4460593;32;34673;-82
2021/04/03 01:13:14;;;;;;;12.37;8.13;;;;;;;11.58;42.29;99426.94;4462770;32;33437;-82
2021/04/03 01:16:03;;;;;;;11.55;8.57;;;;;;;11.29;43.51;99427.56;4461651;32;34065;-81
2021/04/03 01:19:08;;;;;;;11.45;8.20;;;;;;;10.89;44.23;99431.41;4452985;32;33311;-82
2021/04/03 01:22:13;;;;;;;12.80;8.18;;;;;;;11.29;43.38;99426.69;4465817;32;33390;-82
2021/04/03 01:24:59;;;;;;;11.88;7.65;;;;;;;11.29;43.47;99414.34;4445977;32;34995;-83
2021/04/03 01:27:27;;;;;;;14.48;8.82;;;;;;;11.03;44.03;99420.16;4461090;32;33419;-82
2021/04/03 01:30:05;;;;;;;12.37;8.75;;;;;;;11.16;43.42;99413.28;4451446;32;33712;-82
2021/04/03 01:33:01;;;;;;;13.13;8.50;;;;;;;11.22;43.54;99406.84;4466849;32;33646;-82
2021/04/03 01:35:35;;;;;;;11.88;8.82;;;;;;;11.10;44.22;99416.22;4448048;32;33838;-82
2021/04/03 01:38:08;;;;;;;11.40;8.63;;;;;;;10.99;44.49;99424.72;4458348;32;33629;-82
2021/04/03 01:40:38;;;;;;;12.00;7.95;;;;;;;11.12;43.98;99429.37;4468836;32;33407;-82
2021/04/03 01:43:09;;;;;;;12.77;9.18;;;;;;;11.05;43.84;99438.53;4468329;32;33301;-82
2021/04/03 01:45:40;;;;;;;11.55;8.82;;;;;;;10.96;44.20;99442.50;4463734;32;34133;-83
2021/04/03 01:48:09;;;;;;;11.82;9.10;;;;;;;10.77;44.44;99445.22;4476291;32;34415;-83
2021/04/03 01:50:41;;;;;;;13.62;9.40;;;;;;;11.15;43.50;99445.91;4462111;32;33760;-83
2021/04/03 01:53:08;;;;;;;16.75;9.90;;;;;;;11.05;44.14;99449.12;4460876;32;34859;-83
2021/04/03 01:55:37;;;;;;;12.18;8.63;;;;;;;10.92;44.57;99449.75;4467899;32;32992;-83
2021/04/03 01:58:05;;;;;;;14.48;9.93;;;;;;;11.23;43.48;99432.31;4462077;32;33651;-83
2021/04/03 02:00:35;;;;;;;14.43;8.98;;;;;;;10.94;44.60;99426.75;4448777;32;36006;-83
2021/04/03 02:03:04;;;;;;;13.98;9.38;;;;;;;10.61;45.54;99420.53;4474868;32;33602;-83
2021/04/03 02:05:32;;;;;;;13.23;8.23;;;;;;;10.67;45.13;99422.84;4469533;32;33844;-83
2021/04/03 02:07:59;;;;;;;15.00;9.55;;;;;;;10.83;44.81;99420.31;4462085;32;33772;-83
2021/04/03 02:10:30;;;;;;;15.25;9.32;;;;;;;10.91;44.54;99426.91;4465264;32;34927;-82
2021/04/03 02:13:00;;;;;;;13.00;9.20;;;;;;;10.93;44.28;99427.69;4466092;32;32660;-82
2021/04/03 02:15:28;;;;;;;13.00;9.45;;;;;;;10.80;44.60;99434.53;4475829;32;32911;-82
2021/04/03 02:17:56;;;;;;;16.45;10.13;;;;;;;10.74;44.50;99426.91;4480764;32;34603;-82
2021/04/03 02:20:25;;;;;;;16.67;10.48;;;;;;;10.59;45.50;99422.41;4478087;32;33540;-82
2021/04/03 02:22:53;;;;;;;13.48;9.88;;;;;;;10.91;43.61;99416.31;4479439;32;34208;-82
2021/04/03 02:25:20;;;;;;;14.15;10.07;;;;;;;9.87;46.66;99410.84;4473105;32;34077;-82
2021/04/03 02:27:48;;;;;;;14.27;10.35;;;;;;;10.28;45.08;99402.78;4467024;32;33314;-82
2021/04/03 02:30:18;;;;;;;12.73;9.13;;;;;;;10.74;43.97;99403.16;4463974;32;34272;-83
2021/04/03 02:32:54;;;;;;;14.20;9.75;;;;;;;10.60;44.43;99400.34;4478917;31;35444;-83
2021/04/03 02:35:24;;;;;;;14.27;9.75;;;;;;;10.12;46.01;99399.16;4461770;32;34229;-83
2021/04/03 02:37:57;;;;;;;13.05;9.75;;;;;;;10.61;44.15;99402.06;4478117;32;33617;-83
2021/04/03 02:40:30;;;;;;;15.65;9.27;;;;;;;10.63;43.67;99405.44;4462872;32;34766;-83
2021/04/03 02:43:04;;;;;;;14.15;9.70;;;;;;;10.56;43.74;99404.06;4463609;32;33402;-82
2021/04/03 02:45:36;;;;;;;15.18;10.40;;;;;;;10.60;43.45;99395.06;4453990;32;34535;-83
2021/04/03 02:48:09;;;;;;;;;;;;;;;10.50;43.86;99390.25;4475446;32;33603;-82
2021/04/03 02:50:40;;;;;;;12.20;9.32;;;;;;;10.32;44.24;99375.31;4451662;32;33356;-83
2021/04/03 02:53:11;;;;;;;16.42;9.93;;;;;;;9.72;45.54;99386.06;4461343;32;35192;-83
2021/04/03 02:55:47;;;;;;;12.93;9.05;;;;;;;9.96;45.09;99386.69;4460999;32;33015;-82
2021/04/03 02:58:17;;;;;;;17.92;11.38;;;;;;;9.85;45.17;99388.97;4447908;32;35026;-83
2021/04/03 03:00:47;;;;;;;15.93;9.95;;;;;;;10.04;44.98;99385.47;4474434;32;33816;-83
2021/04/03 03:03:14;;;;;;;15.25;10.52;;;;;;;10.20;44.36;99381.16;4475047;32;33551;-83
2021/04/03 03:05:44;;;;;;;14.63;10.55;;;;;;;9.90;44.89;99380.84;4463508;32;33058;-82
2021/04/03 03:08:14;;;;;;;15.23;10.90;;;;;;;9.90;45.12;99386.13;4481739;31;33627;-82
2021/04/03 03:10:44;;;;;;;15.77;10.30;;;;;;;10.01;44.80;99412.84;4479564;32;34666;-83
2021/04/03 03:13:14;;;;;;;15.40;10.70;;;;;;;9.85;45.46;99420.63;4465633;32;33941;-84
2021/04/03 03:15:43;;;;;;;16.85;11.23;;;;;;;10.07;44.25;99433.69;4466599;32;33277;-82
2021/04/03 03:18:12;;;;;;;15.85;11.02;;;;;;;10.31;43.68;99441.38;4478214;32;34251;-82
2021/04/03 03:20:41;;;;;;;15.50;10.98;;;;;;;10.10;44.12;99443.22;4462758;32;33825;-82
2021/04/03 03:23:11;;;;;;;13.80;9.98;;;;;;;10.39;43.10;99437.41;4463325;32;33352;-82
2021/04/03 03:25:39;;;;;;;16.48;11.00;;;;;;;10.37;43.37;99441.06;4465982;32;33003;-83
2021/04/03 03:28:07;;;;;;;16.90;10.68;;;;;;;10.38;42.67;99442.78;4474796;32;33081;-83
2021/04/03 03:30:35;;;;;;;14.50;10.27;;;;;;;10.31;42.85;99442.22;4465539;32;34706;-83
2021/04/03 03:33:04;;;;;;;14.82;10.90;;;;;;;10.43;42.49;99446.91;4448320;32;34538;-82
2021/04/03 03:35:32;;;;;;;16.67;10.88;;;;;;;9.98;43.64;99449.94;4455035;32;33709;-81
2021/04/03 03:38:00;;;;;;;13.98;10.60;;;;;;;9.94;43.96;99449.22;4453542;32;35917;-83
2021/04/03 03:40:28;;;;;;;18.30;11.00;;;;;;;10.08;43.88;99455.62;4477498;32;33714;-81
2021/04/03 03:42:57;;;;;;;16.48;9.88;;;;;;;9.95;44.52;99450.06;4460913;32;34195;-82
2021/04/03 03:45:25;;;;;;;19.37;11.90;;;;;;;9.66;45.18;99446.97;4458873;32;33125;-82
2021/04/03 03:47:57;;;;;;;16.67;11.52;;;;;;;9.96;43.54;99447.34;4463154;32;34398;-82
2021/04/03 03:50:29;;;;;;;16.27;11.15;;;;;;;10.33;42.58;99435.06;4461108;32;33454;-81
2021/04/03 03:52:57;;;;;;;16.73;10.40;;;;;;;10.13;43.25;99435.16;4462005;32;33727;-81
2021/04/03 03:55:25;;;;;;;17.98;11.68;;;;;;;10.30;42.70;99429.94;4463983;32;33643;-82
2021/04/03 03:57:53;;;;;;;18.20;12.55;;;;;;;9.79;44.42;99422.72;4475939;32;33465;-81
2021/04/03 04:00:21;;;;;;;16.23;11.38;;;;;;;9.81;43.63;99421.69;4478849;32;34732;-82
2021/04/03 04:02:52;;;;;;;15.60;11.07;;;;;;;10.01;43.30;99413.69;4468612;32;33544;-82
2021/04/03 04:05:20;;;;;;;14.60;10.30;;;;;;;9.63;44.57;99414.63;4458600;32;34297;-81
2021/04/03 04:07:48;;;;;;;17.75;11.27;;;;;;;9.95;43.36;99416.63;4461070;32;33866;-82
2021/04/03 04:10:16;;;;;;;16.37;10.82;;;;;;;9.88;43.77;99407.31;4477846;32;33765;-82
2021/04/03 04:12:44;;;;;;;16.70;11.95;;;;;;;9.67;44.91;99413.56;4474276;32;33789;-82
2021/04/03 04:15:13;;;;;;;15.73;11.55;;;;;;;9.91;43.85;99422.13;4470310;32;33988;-82
2021/04/03 04:17:40;;;;;;;18.10;11.45;;;;;;;9.76;44.43;99413.16;4452968;32;33689;-83
2021/04/03 04:20:11;;;;;;;16.10;11.50;;;;;;;9.61;45.06;99419.97;4448550;32;34265;-83
2021/04/03 04:22:39;;;;;;;18.20;12.00;;;;;;;9.57;45.22;99418.41;4453229;32;35856;-83
2021/04/03 04:25:07;;;;;;;16.65;11.73;;;;;;;9.56;45.28;99426.41;4467802;32;33070;-83
2021/04/03 04:27:35;;;;;;;17.20;11.18;;;;;;;9.63;45.00;99426.03;4463071;32;33586;-82
2021/04/03 04:30:11;;;;;;;17.65;12.02;;;;;;;9.41;45.60;99415.63;4476992;32;34321;-83
2021/04/03 04:32:41;;;;;;;16.25;10.48;;;;;;;9.46;45.65;99413.63;4453655;32;33817;-83
2021/04/03 04:35:11;;;;;;;18.48;12.70;;;;;;;9.43;45.35;99416.41;4464444;31;33802;-83
2021/04/03 04:37:41;;;;;;;17.87;12.15;;;;;;;9.24;46.03;99432.16;4465610;31;35285;-82
2021/04/03 04:40:11;;;;;;;20.73;11.70;;;;;;;9.39;45.95;99441.16;4470891;31;32184;-82
2021/04/03 04:42:40;;;;;;;18.12;11.68;;;;;;;9.47;45.54;99449.59;4479738;31;33228;-82
2021/04/03 04:45:08;;;;;;;17.42;11.73;;;;;;;9.24;46.66;99453.25;4464673;31;34844;-82
2021/04/03 04:47:37;;;;;;;18.10;13.07;;;;;;;9.52;45.83;99461.72;4476820;31;33336;-82
2021/04/03 04:50:07;;;;;;;19.10;12.35;;;;;;;8.98;47.48;99477.22;4468567;31;34297;-82
2021/04/03 04:52:35;;;;;;;16.75;11.60;;;;;;;9.22;47.17;99484.09;4463285;31;33347;-83
2021/04/03 04:55:04;;;;;;;19.65;12.27;;;;;;;9.61;46.28;99477.97;4470017;31;35270;-83
2021/04/03 04:57:32;;;;;;;17.25;12.07;;;;;;;9.83;45.63;99492.84;4467390;31;34749;-83
2021/04/03 05:00:01;;;;;;;16.15;11.88;;;;;;;9.69;46.16;99490.81;4473838;31;33446;-83
2021/04/03 05:02:33;;;;;;;20.55;12.68;;;;;;;9.18;48.34;99494.81;4464537;31;34210;-83
2021/04/03 05:05:00;;;;;;;15.15;11.30;;;;;;;9.34;47.87;99497.63;4466839;31;32824;-83
2021/04/03 05:07:28;;;;;;;17.95;11.80;;;;;;;9.48;47.81;99488.19;4471428;31;31046;-82
2021/04/03 05:09:55;;;;;;;16.10;11.05;;;;;;;9.64;47.49;99492.81;4481338;31;31947;-82
2021/04/03 05:12:23;;;;;;;15.25;11.12;;;;;;;9.30;48.38;99494.28;4480628;31;33288;-82
2021/04/03 05:14:50;;;;;;;19.48;11.02;;;;;;;9.62;47.71;99495.50;4462196;31;34524;-82
2021/04/03 05:17:18;;;;;;;16.52;11.43;;;;;;;9.62;47.98;99484.09;4474280;31;34143;-82
2021/04/03 05:19:45;;;;;;;20.00;11.57;;;;;;;9.13;49.51;99496.78;4479324;31;33670;-82
2021/04/03 05:22:12;;;;;;;16.42;10.05;;;;;;;9.26;49.82;99497.09;4464251;31;33384;-82
2021/04/03 05:24:40;;;;;;;18.90;11.65;;;;;;;9.42;49.39;99499.03;4472153;31;33275;-82
2021/04/03 05:27:08;;;;;;;16.17;10.27;;;;;;;9.43;49.60;99505.13;4466212;31;35378;-82
2021/04/03 05:29:35;;;;;;;15.88;10.30;;;;;;;8.90;51.41;99517.03;4477687;31;33731;-82
2021/04/03 05:32:03;;;;;;;19.85;10.43;;;;;;;9.24;50.75;99519.09;4467935;31;35349;-83
2021/04/03 05:34:30;;;;;;;17.67;10.02;;;;;;;8.89;51.76;99523.22;4467231;31;33209;-83
2021/04/03 05:37:18;;;;;;;15.88;9.65;;;;;;;9.10;51.33;99528.50;4477677;31;33267;-82
2021/04/03 05:39:45;;;;;;;14.85;9.35;;;;;;;9.21;51.07;99529.78;4467993;32;33420;-83
2021/04/03 05:42:18;;;;;;;12.93;8.57;;;;;;;9.15;51.57;99537.06;4466345;31;33288;-83
2021/04/03 05:44:47;;;;;;;14.52;9.00;;;;;;;8.87;52.56;99535.59;4476933;31;34233;-82
2021/04/03 05:47:15;;;;;;;12.63;8.27;;;;;;;9.30;51.21;99541.69;4473830;32;34573;-83
2021/04/03 05:49:43;;;;;;;11.82;7.78;;;;;;;9.35;51.43;99538.88;4477194;31;33912;-82
2021/04/03 05:52:11;;;;;;;11.23;7.60;;;;;;;9.44;51.03;99531.41;4480213;31;34436;-83
2021/04/03 05:54:39;;;;;;;13.27;7.75;;;;;;;9.51;51.21;99526.75;4475457;31;32819;-82
2021/04/03 05:57:07;;;;;;;13.32;8.18;;;;;;;9.30;51.80;99532.94;4468809;32;33294;-82
2021/04/03 05:59:35;;;;;;;13.30;8.48;;;;;;;9.36;51.65;99527.44;4462778;31;33753;-82
2021/04/03 06:02:05;;;;;;;11.43;8.52;;;;;;;9.57;50.98;99526.47;4455470;31;33673;-81
2021/04/03 06:04:33;;;;;;;12.32;7.25;;;;;;;9.20;52.49;99532.47;4471797;31;33813;-82
2021/04/03 06:07:00;;;;;;;12.95;8.57;;;;;;;9.30;51.81;99525.03;4461132;31;33551;-82
2021/04/03 06:09:29;;;;;;;10.25;7.57;;;;;;;9.39;51.64;99528.13;4464701;31;34639;-82
2021/04/03 06:11:56;;;;;;;13.13;7.75;;;;;;;9.21;52.53;99539.47;4463639;31;34348;-84
2021/04/03 06:14:23;;;;;;;11.32;7.72;;;;;;;9.30;52.36;99546.97;4448114;31;35256;-85
2021/04/03 06:16:52;;;;;;;11.07;7.82;;;;;;;9.19;52.49;99550.06;4478446;31;34500;-84
2021/04/03 06:19:20;;;;;;;10.57;7.30;;;;;;;9.33;52.18;99551.25;4453700;31;34797;-84
2021/04/03 06:22:00;;;;;;;12.25;7.62;;;;;;;9.36;52.00;99552.00;4464589;31;36679;-83
2021/04/03 06:24:36;;;;;;;13.27;7.25;;;;;;;9.28;52.70;99562.00;4478972;31;34081;-84
2021/04/03 06:27:17;;;;;;;12.37;7.43;;;;;;;9.44;52.24;99559.56;4464952;31;32955;-83
2021/04/03 06:29:50;;;;;;;12.23;8.75;;;;;;;9.65;50.84;99570.97;4467708;31;34172;-83
2021/04/03 06:32:20;;;;;;;13.10;8.25;;;;;;;9.49;51.82;99563.72;4476494;31;33649;-82
2021/04/03 06:34:49;;;;;;;12.35;7.57;;;;;;;9.52;51.35;99567.16;4464664;31;33295;-83
2021/04/03 06:37:27;;;;;;;10.48;7.47;;;;;;;9.72;51.38;99564.50;4465369;31;35855;-83
2021/04/03 06:39:57;;;;;;;12.70;8.15;;;;;;;9.77;51.48;99562.50;4465514;31;34430;-83
2021/04/03 06:42:57;;;;;;;12.27;7.65;;;;;;;9.88;51.12;99562.06;4477987;31;33512;-83
2021/04/03 06:45:30;;;;;;;12.25;7.95;;;;;;;9.71;51.60;99568.91;4455361;31;36040;-82
2021/04/03 06:48:01;;;;;;;11.07;7.82;;;;;;;9.53;51.38;99568.84;4476626;31;33353;-87
2021/04/03 06:50:34;;;;;;;12.05;8.27;;;;;;;9.82;50.66;99571.06;4480299;31;32555;-84
2021/04/03 06:53:20;;;;;;;13.85;9.52;;;;;;;9.67;51.44;99577.00;4469835;31;34368;-84
2021/04/03 06:55:50;;;;;;;11.93;8.18;;;;;;;9.64;51.11;99578.03;4476701;31;33278;-84
2021/04/03 06:58:18;;;;;;;16.00;9.13;;;;;;;9.73;51.36;99582.00;4476200;31;33674;-84
2021/04/03 07:00:46;;;;;;;14.30;7.53;;;;;;;10.15;49.91;99579.25;4473941;32;33897;-84
2021/04/03 07:03:24;;;;;;;14.02;8.75;;;;;;;10.63;48.21;99579.72;4464044;32;35014;-83
2021/04/03 07:05:52;;;;;;;13.45;7.70;;;;;;;10.77;47.85;99586.03;4462675;31;34737;-84
2021/04/03 07:08:21;;;;;;;12.07;8.90;;;;;;;10.45;48.57;99590.22;4476241;31;35090;-85
2021/04/03 07:10:48;;;;;;;14.40;8.32;;;;;;;10.47;49.18;99587.50;4466400;31;33447;-84
2021/04/03 07:13:15;;;;;;;16.75;9.55;;;;;;;11.10;46.72;99585.34;4476749;31;32976;-84
2021/04/03 07:15:44;;;;;;;14.02;8.80;;;;;;;11.05;46.74;99583.88;4464036;31;33255;-84
2021/04/03 07:18:11;;;;;;;17.48;9.50;;;;;;;11.00;47.32;99581.44;4472734;31;33382;-84
2021/04/03 07:20:38;;;;;;;15.50;9.88;;;;;;;11.24;46.46;99580.22;4477529;31;33432;-84
2021/04/03 07:23:09;;;;;;;15.18;9.23;;;;;;;11.36;46.70;99589.34;4472653;31;33447;-85
2021/04/03 07:25:41;;;;;;;18.85;12.13;;;;;;;11.65;44.92;99571.16;4465336;31;32615;-85
2021/04/03 07:28:09;;;;;;;16.48;10.25;;;;;;;11.62;43.56;99587.16;4461777;31;33018;-84
2021/04/03 07:30:40;;;;;;;18.08;10.45;;;;;;;11.42;44.22;99586.38;4443729;31;34758;-84
2021/04/03 07:33:15;;;;;;;15.90;10.52;;;;;;;11.68;43.92;99586.84;4477511;31;34540;-84
2021/04/03 07:35:46;;;;;;;16.62;10.73;;;;;;;11.65;44.41;99587.00;4465092;31;32185;-85
2021/04/03 07:38:35;;;;;;;14.50;10.15;;;;;;;12.19;42.99;99585.06;4476331;31;33567;-84
2021/04/03 07:41:16;;;;;;;17.30;10.93;;;;;;;12.01;43.98;99590.44;4476835;31;33982;-85
2021/04/03 07:43:44;;;;;;;16.02;10.18;;;;;;;12.33;43.27;99593.12;4465745;31;35757;-85
2021/04/03 07:46:16;;;;;;;16.67;10.70;;;;;;;12.57;41.77;99598.88;4465184;31;33081;-84
2021/04/03 07:48:45;;;;;;;17.45;10.77;;;;;;;12.39;43.70;99587.50;4461909;31;34832;-85
2021/04/03 07:51:33;;;;;;;17.67;11.95;;;;;;;12.68;41.68;99591.19;4462013;31;33700;-84
2021/04/03 07:54:02;;;;;;;16.62;10.73;;;;;;;12.79;41.02;99593.25;4453711;31;34746;-84
2021/04/03 07:56:49;;;;;;;25.05;13.45;;;;;;;12.33;42.75;99606.34;4457069;31;30132;-84
2021/04/03 07:59:17;;;;;;;22.05;14.63;;;;;;;12.61;41.49;99604.87;4479067;31;34204;-84
2021/04/03 08:01:52;;;;;;;18.60;11.70;;;;;;;12.61;40.80;99604.87;4477608;31;33250;-85
2021/04/03 08:04:25;;;;;;;19.33;11.77;;;;;;;12.60;41.14;99597.84;4449502;31;34357;-85
2021/04/03 08:06:58;;;;;;;19.90;12.52;;;;;;;12.76;40.77;99602.22;4476478;31;33623;-86
2021/04/03 08:09:30;;;;;;;19.35;12.43;;;;;;;13.00;39.64;99602.63;4449070;31;35568;-84
2021/04/03 08:11:58;;;;;;;19.60;13.10;;;;;;;13.00;40.18;99602.63;4473589;31;34242;-85
2021/04/03 08:14:27;;;;;;;18.35;13.02;;;;;;;12.82;40.66;99603.69;4473859;31;33187;-85
2021/04/03 08:16:55;;;;;;;17.17;12.20;;;;;;;12.75;40.77;99604.94;4461609;31;35149;-85
2021/04/03 08:19:27;;;;;;;19.55;11.38;;;;;;;13.10;39.75;99604.75;4453840;31;33604;-84
2021/04/03 08:21:55;;;;;;;20.85;13.88;;;;;;;13.33;39.75;99604.31;4476150;31;34442;-84
2021/04/03 08:24:23;;;;;;;18.98;12.70;;;;;;;13.67;38.82;99603.19;4488515;31;32524;-84
2021/04/03 08:26:51;;;;;;;16.87;11.05;;;;;;;13.80;38.58;99605.97;4477360;31;33445;-85
2021/04/03 08:29:45;;;;;;;16.02;11.60;;;;;;;14.13;38.40;99604.87;4478773;31;33061;-85
2021/04/03 08:32:12;;;;;;;17.55;10.85;;;;;;;14.11;38.47;99602.31;4473826;31;34738;-84
2021/04/03 08:34:43;;;;;;;18.23;12.13;;;;;;;14.21;37.71;99589.31;4463649;31;34073;-84
2021/04/03 08:37:10;;;;;;;15.95;10.77;;;;;;;14.30;37.99;99594.91;4463407;31;33359;-84
2021/04/03 08:39:37;;;;;;;19.25;12.23;;;;;;;14.37;38.16;99590.06;4448217;32;95384;-84
2021/04/03 08:42:05;;;;;;;17.35;11.12;;;;;;;14.18;37.98;99600.13;4440691;32;34718;-84
2021/04/03 08:44:32;;;;;;;14.93;10.75;;;;;;;14.04;37.58;99604.47;4447508;32;34456;-85
2021/04/03 08:47:01;;;;;;;16.10;11.60;;;;;;;14.22;38.00;99583.06;4469937;31;33208;-84
2021/04/03 08:49:34;;;;;;;13.00;9.65;;;;;;;14.11;39.60;99604.97;4459858;32;32108;-85
2021/04/03 08:52:05;;;;;;;12.23;8.98;;;;;;;14.35;38.20;99599.94;4446617;32;34233;-85
2021/04/03 08:54:36;;;;;;;13.55;8.90;;;;;;;14.64;37.94;99600.78;4462946;32;33662;-85
2021/04/03 08:57:24;;;;;;;13.32;9.80;;;;;;;14.49;37.95;99605.28;4461630;32;32479;-86
2021/04/03 08:59:54;;;;;;;12.75;9.55;;;;;;;14.58;37.85;99610.00;4462442;32;33318;-84
2021/04/03 09:02:21;;;;;;;14.40;10.02;;;;;;;14.75;37.09;99608.06;4452476;32;34595;-84
2021/04/03 09:04:49;;;;;;;15.63;9.35;;;;;;;14.74;37.26;99601.91;4462621;32;34388;-85
2021/04/03 09:07:36;;;;;;;13.62;9.57;;;;;;;14.68;38.46;99602.31;4459567;32;31669;-85
2021/04/03 09:10:17;;;;;;;16.17;9.77;;;;;;;14.91;37.54;99600.84;4445476;31;34988;-85
2021/04/03 09:12:46;;;;;;;13.48;9.38;;;;;;;14.63;38.82;99584.97;4463830;32;32387;-85
2021/04/03 09:15:25;;;;;;;16.55;9.98;;;;;;;14.86;36.75;99592.31;4460868;32;34598;-85
2021/04/03 09:17:55;;;;;;;13.73;9.65;;;;;;;14.82;36.71;99593.44;4450369;32;33762;-85
2021/04/03 09:20:24;;;;;;;15.65;9.45;;;;;;;14.73;36.27;99584.25;4447064;32;35671;-85
2021/04/03 09:23:06;;;;;;;13.23;8.90;;;;;;;14.89;36.33;99577.94;4455707;32;33575;-86
2021/04/03 09:25:34;;;;;;;12.18;8.23;;;;;;;14.33;37.77;99596.50;4448062;32;32985;-85
2021/04/03 09:28:15;;;;;;;16.15;8.60;;;;;;;14.62;36.75;99596.50;4438343;32;35209;-85
2021/04/03 09:30:45;;;;;;;11.75;8.25;;;;;;;14.51;36.26;99595.38;4452502;32;33634;-85
2021/04/03 09:33:23;;;;;;;11.68;8.20;;;;;;;14.30;36.46;99594.06;4463102;32;34925;-85
2021/04/03 09:35:51;;;;;;;12.15;8.40;;;;;;;14.51;37.04;99614.00;4446027;32;33122;-84
2021/04/03 09:38:29;;;;;;;10.27;7.75;;;;;;;14.49;36.05;99607.94;4475089;31;33987;-85
2021/04/03 09:40:57;;;;;;;14.93;9.43;;;;;;;14.38;36.48;99598.88;4457228;31;34508;-85
2021/04/03 09:43:41;;;;;;;9.90;8.00;;;;;;;14.45;35.87;99601.06;4477664;31;33336;-85
2021/04/03 09:46:10;;;;;;;11.45;8.68;;;;;;;14.76;35.28;99602.66;4459390;31;32419;-87
2021/04/03 09:48:38;;;;;;;11.88;7.45;;;;;;;14.80;35.16;99617.44;4480688;31;34560;-88
2021/04/03 09:51:06;;;;;;;10.30;7.32;;;;;;;14.79;34.61;99615.75;4454775;31;34588;-83
2021/04/03 09:53:34;;;;;;;8.82;6.93;;;;;;;14.73;34.53;99617.97;4465343;31;34466;-82
2021/04/03 09:56:03;;;;;;;9.82;6.78;;;;;;;14.82;36.28;99625.34;4466338;31;33146;-83
2021/04/03 09:58:31;;;;;;;7.32;5.70;;;;;;;14.76;36.13;99621.25;4463335;31;33014;-83
2021/04/03 10:00:58;;;;;;;9.75;4.32;;;;;;;14.59;37.26;99627.66;4465163;31;33902;-83
2021/04/03 10:03:26;;;;;;;5.93;4.20;;;;;;;14.72;34.96;99630.41;4453533;31;33941;-85
2021/04/03 10:05:53;;;;;;;8.35;4.57;;;;;;;14.94;35.43;99635.19;4476420;31;35669;-85
2021/04/03 10:08:20;;;;;;;7.22;5.00;;;;;;;14.73;36.04;99631.25;4466931;31;33360;-85
2021/04/03 10:10:47;;;;;;;14.15;4.47;;;;;;;14.93;34.34;99624.66;4448346;31;33078;-83
2021/04/03 10:13:14;;;;;;;7.62;4.47;;;;;;;14.88;35.33;99629.41;4464671;31;33207;-83
2021/04/03 10:15:42;;;;;;;7.20;4.30;;;;;;;14.98;35.21;99634.03;4464590;32;32353;-84
2021/04/03 10:18:09;;;;;;;7.87;4.85;;;;;;;15.17;36.08;99639.00;4478312;31;33505;-83
2021/04/03 10:20:36;;;;;;;7.62;4.28;;;;;;;14.63;35.23;99635.44;4476160;31;34344;-84
2021/04/03 10:23:03;;;;;;;6.82;4.22;;;;;;;14.01;36.34;99636.53;4464090;31;33128;-83
2021/04/03 10:25:31;;;;;;;5.82;3.60;;;;;;;13.84;38.05;99642.00;4475414;31;33592;-83
2021/04/03 10:27:58;;;;;;;6.22;3.87;;;;;;;14.25;36.72;99638.66;4462018;31;34480;-83
2021/04/03 10:30:25;;;;;;;9.05;3.97;;;;;;;14.47;36.64;99631.03;4453936;32;34072;-83
2021/04/03 10:32:53;;;;;;;5.82;3.15;;;;;;;14.92;34.99;99622.97;4444941;32;35722;-83
2021/04/03 10:35:20;;;;;;;7.12;3.58;;;;;;;15.05;34.86;99623.88;4449849;32;33489;-83
2021/04/03 10:37:47;;;;;;;3.80;2.87;;;;;;;14.91;33.55;99623.88;4457824;32;33017;-83
2021/04/03 10:40:15;;;;;;;5.07;3.22;;;;;;;14.60;34.45;99616.06;4461478;32;33657;-82
2021/04/03 10:42:42;;;;;;;6.93;3.80;;;;;;;14.19;35.11;99623.06;4457567;32;33515;-83
2021/04/03 10:45:10;;;;;;;6.75;3.05;;;;;;;14.46;35.37;99613.41;4448943;32;34087;-83
2021/04/03 10:47:37;;;;;;;9.15;3.85;;;;;;;14.54;34.01;99605.00;4431302;32;34434;-83
2021/04/03 10:50:05;;;;;;;6.07;3.50;;;;;;;14.77;34.24;99606.19;4460634;32;35033;-83
2021/04/03 10:52:32;;;;;;;4.57;3.55;;;;;;;14.69;34.29;99611.97;4445395;32;33680;-83
2021/04/03 10:55:00;;;;;;;6.40;3.42;;;;;;;14.87;34.29;99612.63;4434745;32;33017;-82
2021/04/03 10:57:27;;;;;;;5.93;3.67;;;;;;;15.22;31.86;99612.97;4471019;32;32883;-83
2021/04/03 10:59:54;;;;;;;5.35;3.50;;;;;;;14.82;32.35;99612.91;4452489;32;33899;-83
2021/04/03 11:02:22;;;;;;;5.07;3.60;;;;;;;14.89;32.18;99631.97;4442977;32;33871;-83
2021/04/03 11:04:49;;;;;;;5.72;3.33;;;;;;;14.81;32.63;99620.97;4446042;32;31680;-83
2021/04/03 11:07:17;;;;;;;7.80;2.97;;;;;;;14.67;32.49;99627.19;4451356;32;32139;-83
2021/04/03 11:09:45;;;;;;;4.55;2.90;;;;;;;14.70;32.63;99626.13;4446593;32;33643;-83
2021/04/03 11:12:13;;;;;;;6.32;2.65;;;;;;;15.27;31.82;99620.66;4455951;32;33408;-83
2021/04/03 11:14:43;;;;;;;4.78;3.20;;;;;;;15.29;31.41;99622.25;4466462;32;34301;-83
2021/04/03 11:17:11;;;;;;;6.32;3.47;;;;;;;14.81;33.13;99624.50;4443074;32;33881;-83
2021/04/03 11:19:38;;;;;;;6.20;3.47;;;;;;;15.15;32.40;99616.16;4440271;32;35620;-83
2021/04/03 11:22:06;;;;;;;7.55;3.22;;;;;;;15.31;30.92;99617.69;4448143;32;33978;-83
2021/04/03 11:24:35;;;;;;;5.50;2.92;;;;;;;15.15;31.90;99613.50;4467167;32;35411;-83
2021/04/03 11:27:02;;;;;;;5.03;3.10;;;;;;;15.44;31.40;99617.72;4461231;32;33240;-83
2021/04/03 11:29:45;;;;;;;3.87;2.87;;;;;;;15.69;31.02;99598.34;4472060;32;33686;-86
2021/04/03 11:32:13;;;;;;;6.18;3.05;;;;;;;15.62;29.89;99597.87;4463301;32;34103;-88
2021/04/03 11:34:41;;;;;;;3.95;3.00;;;;;;;15.31;29.67;99601.72;4439675;32;33238;-87
2021/04/03 11:37:08;;;;;;;4.80;3.22;;;;;;;15.51;30.38;99594.22;4430879;32;32795;-90
2021/04/03 11:39:36;;;;;;;5.07;3.08;;;;;;;15.51;29.95;99592.41;4439970;32;35514;-83
2021/04/03 11:42:05;;;;;;;8.32;3.55;;;;;;;15.53;30.54;99600.31;4464901;32;35497;-83